Time;durP1;ratioP1;P1;durP2;ratioP2;P2;SDS_P1;SDS_P2;PMS_P1;PMS_P2;Temp;Humidity;BMP_temperature;BMP_pressure;BME280_temperature;BME280_humidity;BME280_pressure;Samples;Min_cycle;Max_cycle;Signal;HPM_P1;HPM_P2
2023/06/03 00:00:11;;;;;;;9.30;3.37;;;;;;;15.16;63.35;98090.38;4994437;28;20207;-77
2023/06/03 00:02:37;;;;;;;6.23;3.30;;;;;;;15.20;63.18;98094.19;4994700;28;20207;-77
2023/06/03 00:05:04;;;;;;;7.70;3.43;;;;;;;15.15;63.82;98091.44;4994269;28;20203;-77
2023/06/03 00:07:31;;;;;;;8.37;3.23;;;;;;;15.11;63.86;98084.94;4994212;28;20242;-77
2023/06/03 00:09:57;;;;;;;7.83;3.20;;;;;;;15.08;64.00;98098.03;4999809;28;20198;-78
2023/06/03 00:12:23;;;;;;;11.43;3.63;;;;;;;15.13;63.61;98085.53;5003530;28;20200;-78
2023/06/03 00:14:50;;;;;;;7.33;3.20;;;;;;;15.06;64.22;98081.41;5004235;28;20222;-78
2023/06/03 00:17:16;;;;;;;8.23;3.13;;;;;;;14.98;64.31;98079.16;5004940;28;20237;-77
2023/06/03 00:19:43;;;;;;;8.97;3.80;;;;;;;14.95;64.88;98074.28;5003076;28;20199;-77
2023/06/03 00:22:09;;;;;;;7.87;3.40;;;;;;;15.02;64.83;98080.28;5003909;28;20203;-77
2023/06/03 00:24:36;;;;;;;10.17;3.73;;;;;;;14.98;64.91;98085.31;5008898;28;20282;-77
2023/06/03 00:27:02;;;;;;;6.53;3.60;;;;;;;14.95;64.92;98083.13;5006363;28;20567;-77
2023/06/03 00:29:29;;;;;;;13.13;3.77;;;;;;;14.95;65.03;98084.97;5007816;28;20569;-77
2023/06/03 00:31:55;;;;;;;9.60;3.70;;;;;;;14.92;65.22;98086.28;5008171;28;20211;-77
2023/06/03 00:34:22;;;;;;;9.33;3.37;;;;;;;14.92;64.99;98083.59;5006298;28;20219;-77
2023/06/03 00:36:48;;;;;;;10.47;3.60;;;;;;;14.95;65.10;98085.81;5007619;28;20233;-77
2023/06/03 00:39:14;;;;;;;8.00;3.00;;;;;;;14.93;65.33;98073.72;5008362;28;20218;-77
2023/06/03 00:41:41;;;;;;;7.23;3.13;;;;;;;14.94;65.15;98086.88;5006130;28;20203;-77
2023/06/03 00:44:07;;;;;;;7.50;3.23;;;;;;;14.89;65.68;98077.94;5011538;28;20678;-77
2023/06/03 00:46:35;;;;;;;8.13;3.53;;;;;;;14.86;65.52;98067.72;5017304;28;20732;-77
2023/06/03 00:49:03;;;;;;;7.57;3.53;;;;;;;14.79;66.04;98073.22;5017687;28;20209;-77
2023/06/03 00:51:32;;;;;;;9.33;3.27;;;;;;;14.79;66.09;98070.56;5017653;28;20684;-78
2023/06/03 00:54:00;;;;;;;10.73;3.60;;;;;;;14.75;66.17;98071.31;5017470;28;20261;-77
2023/06/03 00:56:27;;;;;;;7.10;3.00;;;;;;;14.67;66.19;98072.53;5016907;28;20805;-77
2023/06/03 00:58:53;;;;;;;8.27;3.50;;;;;;;14.56;66.92;98070.72;5017493;28;20218;-77
2023/06/03 01:01:21;;;;;;;9.37;3.27;;;;;;;14.51;67.22;98073.34;5017194;28;20256;-77
2023/06/03 01:03:48;;;;;;;11.93;3.77;;;;;;;14.58;67.60;98065.97;5016807;28;20581;-77
2023/06/03 01:06:45;;;;;;;6.73;2.87;;;;;;;14.49;67.28;98063.94;5016747;28;20622;-77
2023/06/03 01:09:28;;;;;;;11.63;3.67;;;;;;;14.42;67.85;98061.41;5017167;28;20191;-77
2023/06/03 01:12:16;;;;;;;15.77;3.60;;;;;;;14.42;67.79;98068.66;5017012;28;20560;-77
2023/06/03 01:15:00;;;;;;;8.53;3.60;;;;;;;14.40;68.09;98062.72;5017043;28;20226;-77
2023/06/03 01:17:31;;;;;;;7.90;3.07;;;;;;;14.44;68.29;98059.31;5015740;28;20321;-77
2023/06/03 01:20:00;;;;;;;7.77;3.70;;;;;;;14.45;68.09;98060.13;5016935;28;20197;-77
2023/06/03 01:22:28;;;;;;;12.73;3.70;;;;;;;14.40;68.47;98060.84;5016672;28;20207;-77
2023/06/03 01:25:08;;;;;;;7.07;3.57;;;;;;;14.38;68.86;98067.50;5016660;28;20253;-77
2023/06/03 01:27:36;;;;;;;6.43;3.20;;;;;;;14.31;69.26;98053.47;5016990;28;20202;-77
2023/06/03 01:30:04;;;;;;;7.40;3.50;;;;;;;14.29;69.26;98051.03;5016988;28;20213;-77
2023/06/03 01:32:31;;;;;;;8.43;3.30;;;;;;;14.31;69.28;98062.31;5016946;28;20206;-77
2023/06/03 01:34:58;;;;;;;7.43;3.30;;;;;;;14.27;69.45;98058.50;5015992;28;20240;-77
2023/06/03 01:37:26;;;;;;;8.43;3.10;;;;;;;14.23;69.64;98060.03;5016655;28;20253;-77
2023/06/03 01:39:54;;;;;;;11.93;3.70;;;;;;;14.18;70.07;98059.91;5016291;28;20666;-77
2023/06/03 01:42:20;;;;;;;7.93;3.40;;;;;;;14.25;69.58;98065.94;5016139;28;20574;-77
2023/06/03 01:44:47;;;;;;;6.60;3.53;;;;;;;14.19;69.66;98064.19;5016373;28;20207;-77
2023/06/03 01:47:14;;;;;;;7.83;3.40;;;;;;;14.17;70.21;98058.31;5015963;28;20222;-77
2023/06/03 01:49:40;;;;;;;8.03;3.80;;;;;;;14.15;70.00;98068.41;5016387;28;20237;-77
2023/06/03 01:52:06;;;;;;;8.03;3.40;;;;;;;14.23;69.86;98060.03;5016277;28;20213;-77
2023/06/03 01:54:33;;;;;;;6.40;3.33;;;;;;;14.14;70.40;98060.63;5015712;28;20592;-77
2023/06/03 01:57:00;;;;;;;8.90;3.33;;;;;;;14.09;70.34;98061.34;5015991;28;20226;-77
2023/06/03 01:59:26;;;;;;;8.60;3.10;;;;;;;14.03;70.97;98062.34;5016139;28;20640;-77
2023/06/03 02:01:54;;;;;;;9.07;3.30;;;;;;;13.99;70.83;98058.50;5015956;28;20213;-77
2023/06/03 02:04:21;;;;;;;8.43;3.07;;;;;;;14.03;70.66;98061.50;5015599;28;20207;-77
2023/06/03 02:06:51;;;;;;;7.97;3.60;;;;;;;14.07;70.61;98062.66;5015410;28;20238;-77
2023/06/03 02:09:21;;;;;;;8.77;3.47;;;;;;;14.05;71.03;98062.06;5016181;28;20199;-77
2023/06/03 02:12:00;;;;;;;6.87;3.20;;;;;;;14.01;71.18;98061.75;5015442;28;20207;-77
2023/06/03 02:14:29;;;;;;;10.80;3.57;;;;;;;13.99;71.66;98055.84;5015725;28;20242;-77
2023/06/03 02:16:56;;;;;;;5.53;3.10;;;;;;;13.96;71.86;98063.50;5015672;28;20233;-77
2023/06/03 02:19:25;;;;;;;9.70;3.60;;;;;;;13.95;71.77;98060.03;5015820;28;20237;-77
2023/06/03 02:21:52;;;;;;;6.60;3.23;;;;;;;13.97;72.32;98052.56;5015545;28;20753;-77
2023/06/03 02:24:19;;;;;;;6.10;3.43;;;;;;;13.98;71.86;98059.53;5015579;28;20234;-77
2023/06/03 02:26:49;;;;;;;7.10;3.00;;;;;;;14.00;72.00;98053.97;5015360;28;20234;-77
2023/06/03 02:29:22;;;;;;;7.17;3.60;;;;;;;13.93;72.65;98056.00;5015636;28;20210;-77
2023/06/03 02:31:49;;;;;;;7.07;2.83;;;;;;;13.88;72.34;98059.38;5015543;28;20280;-77
2023/06/03 02:34:15;;;;;;;8.93;3.43;;;;;;;13.86;72.95;98048.13;5015298;28;20207;-77
2023/06/03 02:36:43;;;;;;;9.93;3.57;;;;;;;13.87;72.64;98057.75;5015474;28;20226;-77
2023/06/03 02:39:10;;;;;;;6.87;3.47;;;;;;;13.80;73.07;98057.06;5015309;28;20615;-77
2023/06/03 02:41:37;;;;;;;12.23;3.83;;;;;;;13.68;73.89;98050.97;5015316;28;20208;-77
2023/06/03 02:44:04;;;;;;;8.80;3.37;;;;;;;13.70;74.08;98067.56;5015278;28;20207;-77
2023/06/03 02:46:31;;;;;;;6.47;3.23;;;;;;;13.67;74.26;98060.06;5014264;28;20226;-77
2023/06/03 02:48:57;;;;;;;8.73;3.33;;;;;;;13.68;74.51;98064.34;5015164;28;20209;-77
2023/06/03 02:51:24;;;;;;;8.23;3.40;;;;;;;13.61;74.67;98057.53;5015149;28;20202;-77
2023/06/03 02:53:51;;;;;;;7.07;3.70;;;;;;;13.67;74.61;98067.25;5014794;28;20212;-77
2023/06/03 02:56:17;;;;;;;8.77;3.90;;;;;;;13.66;74.50;98071.75;5014903;28;20245;-77
2023/06/03 02:58:44;;;;;;;6.30;3.30;;;;;;;13.66;74.91;98062.97;5015024;28;20216;-77
2023/06/03 03:01:10;;;;;;;8.10;3.40;;;;;;;13.69;75.28;98060.63;5014990;28;20213;-77
2023/06/03 03:03:36;;;;;;;6.67;3.23;;;;;;;13.58;76.22;98063.31;5014854;28;20209;-77
2023/06/03 03:06:03;;;;;;;6.43;3.50;;;;;;;13.49;76.18;98065.56;5014568;28;20243;-77
2023/06/03 03:08:31;;;;;;;5.93;3.20;;;;;;;13.43;77.01;98060.38;5014837;28;20217;-77
2023/06/03 03:10:58;;;;;;;9.63;3.80;;;;;;;13.39;77.25;98064.56;5014794;28;20214;-77
2023/06/03 03:13:24;;;;;;;9.23;3.57;;;;;;;13.43;77.82;98065.72;5014947;28;20202;-77
2023/06/03 03:15:51;;;;;;;6.23;3.60;;;;;;;13.26;78.09;98068.31;5014543;28;20241;-76
2023/06/03 03:18:17;;;;;;;9.20;3.33;;;;;;;13.17;78.51;98068.88;5014813;28;20207;-76
2023/06/03 03:20:44;;;;;;;9.30;3.80;;;;;;;13.11;79.59;98072.50;5014265;28;20677;-76
2023/06/03 03:23:14;;;;;;;7.33;3.50;;;;;;;13.14;79.28;98067.50;5014203;28;20215;-77
2023/06/03 03:25:40;;;;;;;7.20;3.20;;;;;;;13.22;79.32;98072.50;5014716;28;20259;-77
2023/06/03 03:28:07;;;;;;;9.20;3.90;;;;;;;13.14;79.74;98075.50;5015218;28;20204;-77
2023/06/03 03:30:37;;;;;;;9.47;3.83;;;;;;;13.11;79.32;98075.97;5014111;28;20576;-77
2023/06/03 03:33:03;;;;;;;9.30;4.03;;;;;;;13.19;79.74;98078.28;5013995;28;20570;-77
2023/06/03 03:35:30;;;;;;;8.40;4.20;;;;;;;13.16;80.41;98084.09;5014014;28;20700;-77
2023/06/03 03:38:05;;;;;;;8.97;3.70;;;;;;;13.21;80.08;98081.50;5014324;28;20216;-77
2023/06/03 03:40:33;;;;;;;8.10;4.00;;;;;;;13.14;80.22;98083.50;5014272;28;20290;-77
2023/06/03 03:43:02;;;;;;;9.23;4.10;;;;;;;13.19;80.48;98078.28;5014452;28;20209;-77
2023/06/03 03:45:36;;;;;;;8.03;3.83;;;;;;;13.04;81.03;98080.63;5014251;28;20257;-77
2023/06/03 03:48:21;;;;;;;9.63;4.13;;;;;;;12.88;81.26;98080.50;5013800;28;20636;-77
2023/06/03 03:50:49;;;;;;;9.17;3.70;;;;;;;12.83;82.13;98083.84;5014071;28;20194;-77
2023/06/03 03:53:21;;;;;;;8.30;4.30;;;;;;;12.76;82.05;98077.84;5013781;28;20298;-77
2023/06/03 03:55:49;;;;;;;8.50;3.97;;;;;;;12.82;82.13;98082.22;5013917;28;20236;-77
2023/06/03 03:58:30;;;;;;;10.17;4.30;;;;;;;12.76;82.35;98077.84;5013398;28;20688;-77
2023/06/03 04:01:01;;;;;;;8.40;4.43;;;;;;;12.57;83.34;98078.97;5013907;28;20209;-76
2023/06/03 04:03:29;;;;;;;10.13;4.30;;;;;;;12.63;84.14;98091.41;5013810;28;20552;-77
2023/06/03 04:05:56;;;;;;;9.83;4.17;;;;;;;12.57;83.94;98086.16;5013397;28;20710;-77
2023/06/03 04:08:46;;;;;;;11.33;4.00;;;;;;;12.75;84.10;98089.53;5013940;28;20239;-77
2023/06/03 04:11:39;;;;;;;8.37;4.07;;;;;;;12.73;84.11;98085.47;5013601;28;20198;-77
2023/06/03 04:14:10;;;;;;;6.40;4.00;;;;;;;12.80;83.72;98094.97;5006734;28;20213;-77
2023/06/03 04:16:57;;;;;;;8.57;3.97;;;;;;;12.74;83.87;98098.56;5013915;28;20235;-77
2023/06/03 04:19:36;;;;;;;7.83;4.00;;;;;;;12.76;84.25;98096.50;5013695;28;20217;-77
2023/06/03 04:22:05;;;;;;;11.23;4.17;;;;;;;12.82;83.88;98098.25;5013719;28;20665;-77
2023/06/03 04:24:34;;;;;;;8.47;3.93;;;;;;;12.74;83.74;98101.25;5013798;28;20567;-77
2023/06/03 04:27:03;;;;;;;8.30;4.27;;;;;;;12.80;84.94;98102.97;5013694;28;20235;-77
2023/06/03 04:29:31;;;;;;;11.07;4.30;;;;;;;12.80;84.45;98100.31;5013842;28;20213;-77
2023/06/03 04:31:57;;;;;;;7.53;3.93;;;;;;;13.02;83.31;98098.72;5013503;28;20557;-77
2023/06/03 04:34:28;;;;;;;8.33;4.20;;;;;;;13.13;82.65;98102.44;5013860;28;20209;-77
2023/06/03 04:36:55;;;;;;;9.93;4.90;;;;;;;13.05;83.21;98106.28;5013706;28;20230;-77
2023/06/03 04:39:21;;;;;;;10.60;4.63;;;;;;;13.09;84.66;98103.94;5013403;28;20220;-77
2023/06/03 04:41:47;;;;;;;10.30;4.73;;;;;;;13.13;82.38;98108.59;5013461;28;20210;-77
2023/06/03 04:44:14;;;;;;;8.47;3.90;;;;;;;13.04;82.67;98111.84;5013631;28;20212;-77
2023/06/03 04:46:45;;;;;;;9.30;3.90;;;;;;;12.95;83.17;98115.88;5013604;28;20312;-77
2023/06/03 04:49:12;;;;;;;8.83;4.33;;;;;;;12.99;82.82;98101.88;5013765;28;20228;-77
2023/06/03 04:51:40;;;;;;;7.33;4.50;;;;;;;13.06;82.96;98101.75;5013312;28;20216;-77
2023/06/03 04:54:06;;;;;;;10.33;4.60;;;;;;;13.06;82.83;98096.41;5013032;28;20640;-77
2023/06/03 04:56:33;;;;;;;13.70;4.50;;;;;;;13.22;82.54;98096.50;5013229;28;20269;-77
2023/06/03 04:59:03;;;;;;;7.73;4.17;;;;;;;13.27;81.87;98099.28;5013451;28;20213;-77
2023/06/03 05:01:31;;;;;;;8.87;4.83;;;;;;;13.33;81.55;98101.00;5013328;28;20294;-77
2023/06/03 05:03:57;;;;;;;8.87;4.13;;;;;;;13.41;81.06;98097.97;5014017;28;20210;-77
2023/06/03 05:06:24;;;;;;;8.00;4.10;;;;;;;13.85;79.79;98094.59;5013024;28;20609;-77
2023/06/03 05:08:51;;;;;;;7.07;3.77;;;;;;;14.33;77.35;98089.63;5014625;28;20287;-77
2023/06/03 05:11:20;;;;;;;8.30;4.00;;;;;;;14.68;76.12;98089.38;5017082;28;20210;-77
2023/06/03 05:13:46;;;;;;;10.07;3.70;;;;;;;14.82;74.63;98093.34;5017330;28;20574;-77
2023/06/03 05:16:13;;;;;;;7.57;3.80;;;;;;;15.15;72.77;98082.59;5017063;28;20238;-77
2023/06/03 05:18:40;;;;;;;11.73;4.00;;;;;;;15.19;70.66;98092.56;5017353;28;20217;-77
2023/06/03 05:21:06;;;;;;;9.67;4.00;;;;;;;15.58;68.64;98086.16;5017260;28;20289;-77
2023/06/03 05:23:33;;;;;;;7.37;3.63;;;;;;;16.04;67.41;98090.97;5017099;28;20213;-77
2023/06/03 05:26:00;;;;;;;7.13;3.60;;;;;;;15.72;68.50;98090.06;5017160;28;20253;-77
2023/06/03 05:28:26;;;;;;;7.60;3.63;;;;;;;15.46;70.06;98087.31;5016934;28;20214;-77
2023/06/03 05:30:53;;;;;;;7.93;3.83;;;;;;;15.55;70.24;98093.84;5016945;28;20208;-77
2023/06/03 05:33:26;;;;;;;6.37;3.80;;;;;;;15.68;69.36;98088.94;5016445;28;20298;-77
2023/06/03 05:35:52;;;;;;;8.40;3.87;;;;;;;15.31;70.37;98093.28;5016914;28;20234;-77
2023/06/03 05:38:19;;;;;;;8.03;3.70;;;;;;;15.25;71.45;98082.72;5016939;28;20383;-77
2023/06/03 05:40:45;;;;;;;9.23;3.93;;;;;;;15.29;72.33;98095.38;5016991;28;20214;-77
2023/06/03 05:43:12;;;;;;;7.47;3.47;;;;;;;15.44;70.97;98092.13;5017038;28;20209;-77
2023/06/03 05:45:38;;;;;;;10.93;3.80;;;;;;;15.51;71.06;98084.72;5016761;28;20227;-77
2023/06/03 05:48:05;;;;;;;7.33;3.80;;;;;;;15.23;71.39;98091.00;5016442;28;20223;-77
2023/06/03 05:50:31;;;;;;;9.27;3.80;;;;;;;15.38;71.53;98093.13;5016871;28;20214;-77
2023/06/03 05:52:58;;;;;;;6.97;3.97;;;;;;;15.53;72.62;98080.72;5016681;28;20210;-77
2023/06/03 05:55:24;;;;;;;6.53;3.70;;;;;;;15.60;70.89;98089.38;5016270;28;20230;-77
2023/06/03 05:57:50;;;;;;;7.57;3.80;;;;;;;15.58;69.28;98086.16;5016692;28;20567;-77
2023/06/03 06:00:17;;;;;;;9.43;3.97;;;;;;;15.79;69.02;98085.31;5013030;28;20203;-77
2023/06/03 06:02:45;;;;;;;8.90;3.77;;;;;;;15.89;69.85;98089.97;5004938;28;20662;-77
2023/06/03 06:05:11;;;;;;;6.87;3.97;;;;;;;16.01;68.21;98080.72;5004874;28;20210;-77
2023/06/03 06:07:38;;;;;;;8.17;3.73;;;;;;;15.93;68.66;98091.91;5005505;28;20207;-77
2023/06/03 06:10:04;;;;;;;8.40;3.97;;;;;;;16.09;68.41;98084.81;5006744;28;20206;-77
2023/06/03 06:12:31;;;;;;;10.47;3.90;;;;;;;15.70;68.39;98091.38;5005006;28;20274;-77
2023/06/03 06:14:57;;;;;;;7.23;3.50;;;;;;;16.00;70.02;98089.03;5006129;28;20206;-77
2023/06/03 06:17:24;;;;;;;10.53;3.73;;;;;;;16.03;69.04;98080.47;5006984;28;20228;-77
2023/06/03 06:19:50;;;;;;;11.57;4.97;;;;;;;16.19;68.24;98083.06;5004731;28;20199;-77
2023/06/03 06:22:16;;;;;;;7.77;3.60;;;;;;;16.06;67.39;98083.47;5006025;28;20199;-77
2023/06/03 06:24:43;;;;;;;7.07;3.77;;;;;;;16.16;68.50;98088.13;5006286;28;20199;-77
2023/06/03 06:27:10;;;;;;;8.53;3.73;;;;;;;16.10;68.43;98084.56;5004471;28;20215;-77
2023/06/03 06:29:36;;;;;;;7.17;3.80;;;;;;;16.26;65.83;98086.34;5004637;28;20210;-77
2023/06/03 06:32:04;;;;;;;7.10;3.60;;;;;;;16.32;65.95;98088.00;5004647;28;20685;-77
2023/06/03 06:34:31;;;;;;;8.37;4.33;;;;;;;16.23;69.69;98092.22;5004604;28;20196;-77
2023/06/03 06:36:59;;;;;;;8.40;4.20;;;;;;;16.49;67.44;98086.06;5005498;28;20586;-77
2023/06/03 06:39:32;;;;;;;9.40;4.40;;;;;;;16.58;66.40;98091.75;5006103;28;20206;-77
2023/06/03 06:42:12;;;;;;;12.17;4.30;;;;;;;16.30;66.09;98086.66;5005523;28;20196;-77
2023/06/03 06:44:49;;;;;;;7.10;4.23;;;;;;;16.16;68.25;98091.63;5005289;28;20291;-77
2023/06/03 06:47:23;;;;;;;6.30;3.83;;;;;;;16.45;67.28;98093.00;5004843;28;20226;-77
2023/06/03 06:49:50;;;;;;;10.50;4.10;;;;;;;16.56;67.34;98092.00;5003838;28;20720;-77
2023/06/03 06:52:17;;;;;;;12.27;4.20;;;;;;;16.62;65.71;98093.69;5004994;28;20617;-77
2023/06/03 06:54:43;;;;;;;11.70;4.37;;;;;;;16.35;65.99;98089.38;5005687;28;20196;-77
2023/06/03 06:57:10;;;;;;;6.77;3.77;;;;;;;16.48;68.04;98087.13;5004063;28;20227;-78
2023/06/03 06:59:36;;;;;;;8.73;4.17;;;;;;;16.70;66.56;98085.13;5005238;28;20202;-77
2023/06/03 07:02:03;;;;;;;7.60;4.27;;;;;;;16.81;66.23;98088.72;5005858;28;20214;-77
2023/06/03 07:04:29;;;;;;;6.43;3.70;;;;;;;16.74;67.18;98094.31;5003758;28;20203;-77
2023/06/03 07:06:55;;;;;;;8.27;3.93;;;;;;;16.59;66.16;98096.88;5005423;28;20222;-78
2023/06/03 07:09:22;;;;;;;10.57;4.30;;;;;;;16.73;66.20;98087.31;5005266;28;20210;-78
2023/06/03 07:11:49;;;;;;;10.40;4.47;;;;;;;17.07;69.84;98093.19;5003744;28;20195;-77
2023/06/03 07:14:16;;;;;;;7.43;3.57;;;;;;;17.12;66.17;98091.38;5005736;28;20238;-78
2023/06/03 07:16:43;;;;;;;10.83;4.20;;;;;;;17.29;67.30;98086.59;5005484;28;20238;-77
2023/06/03 07:19:09;;;;;;;7.13;4.20;;;;;;;17.16;62.79;98094.31;5011826;28;20237;-77
2023/06/03 07:21:36;;;;;;;6.77;3.40;;;;;;;17.22;64.70;98090.59;5015276;28;20213;-77
2023/06/03 07:24:03;;;;;;;7.20;4.17;;;;;;;17.24;64.01;98088.47;5014712;28;20213;-77
2023/06/03 07:26:31;;;;;;;10.03;4.43;;;;;;;17.45;62.24;98091.03;5014552;28;20271;-78
2023/06/03 07:28:58;;;;;;;7.70;4.27;;;;;;;17.43;64.21;98092.38;5015320;28;20273;-78
2023/06/03 07:31:25;;;;;;;8.67;3.73;;;;;;;17.54;63.39;98086.78;5014616;28;20211;-78
2023/06/03 07:33:52;;;;;;;8.27;4.00;;;;;;;17.71;63.54;98091.94;5015284;28;20202;-78
2023/06/03 07:36:21;;;;;;;5.87;3.50;;;;;;;17.93;61.33;98088.00;5015033;28;20233;-77
2023/06/03 07:39:04;;;;;;;10.93;4.00;;;;;;;18.10;59.85;98080.50;5014061;28;20272;-77
2023/06/03 07:41:40;;;;;;;7.13;4.00;;;;;;;18.06;61.33;98076.72;5014531;28;20241;-77
2023/06/03 07:44:11;;;;;;;9.73;4.33;;;;;;;18.05;61.27;98082.38;5008564;28;20204;-77
2023/06/03 07:46:40;;;;;;;9.23;4.00;;;;;;;17.97;61.24;98081.00;5008895;28;20219;-78
2023/06/03 07:49:14;;;;;;;8.97;4.00;;;;;;;18.07;61.23;98085.59;5003668;28;20203;-78
2023/06/03 07:51:51;;;;;;;7.43;4.00;;;;;;;18.15;61.41;98093.16;5003628;28;20286;-78
2023/06/03 07:54:18;;;;;;;10.40;4.07;;;;;;;17.82;59.55;98091.72;5003967;28;20187;-77
2023/06/03 07:56:46;;;;;;;9.83;3.93;;;;;;;17.84;62.28;98091.47;5005985;28;20222;-77
2023/06/03 07:59:14;;;;;;;5.93;3.73;;;;;;;18.36;59.70;98089.44;5003986;28;20199;-77
2023/06/03 08:01:42;;;;;;;7.57;3.97;;;;;;;18.41;58.71;98090.25;5003375;28;20203;-77
2023/06/03 08:04:30;;;;;;;9.63;4.23;;;;;;;18.50;58.55;98094.03;5004091;28;20626;-77
2023/06/03 08:06:59;;;;;;;5.63;3.53;;;;;;;18.56;59.32;98101.06;5004421;28;20274;-78
2023/06/03 08:09:28;;;;;;;8.80;3.43;;;;;;;18.71;59.13;98097.56;5004027;28;20195;-77
2023/06/03 08:11:59;;;;;;;9.57;4.20;;;;;;;18.64;57.72;98099.72;5004274;28;20659;-78
2023/06/03 08:14:26;;;;;;;7.67;3.73;;;;;;;18.85;58.38;98096.75;5004192;28;20199;-77
2023/06/03 08:16:53;;;;;;;7.80;3.87;;;;;;;18.93;57.91;98098.09;5004370;28;20226;-77
2023/06/03 08:19:20;;;;;;;6.87;3.63;;;;;;;19.14;58.21;98095.06;5004502;28;20203;-77
2023/06/03 08:21:46;;;;;;;8.37;4.07;;;;;;;19.22;59.54;98097.25;5003975;28;20206;-78
2023/06/03 08:24:13;;;;;;;9.70;3.90;;;;;;;19.24;58.19;98092.41;5004661;28;20207;-77
2023/06/03 08:26:41;;;;;;;7.80;3.87;;;;;;;19.34;56.65;98095.09;5002325;28;20394;-77
2023/06/03 08:29:07;;;;;;;7.00;3.70;;;;;;;19.32;55.79;98097.22;5002361;28;20202;-77
2023/06/03 08:31:34;;;;;;;6.07;3.93;;;;;;;19.07;58.89;98099.97;5002645;28;20673;-77
2023/06/03 08:34:02;;;;;;;5.87;3.53;;;;;;;19.33;57.80;98098.88;5013917;28;20206;-77
2023/06/03 08:36:29;;;;;;;6.60;4.10;;;;;;;19.53;57.17;98104.19;5013675;28;20227;-77
2023/06/03 08:38:56;;;;;;;9.07;3.70;;;;;;;19.57;57.36;98103.66;5013251;28;20215;-77
2023/06/03 08:41:38;;;;;;;7.47;4.17;;;;;;;19.84;58.45;98109.47;5013346;28;20715;-76
2023/06/03 08:44:14;;;;;;;8.63;4.20;;;;;;;19.76;55.57;98112.75;5014756;28;20642;-77
2023/06/03 08:46:47;;;;;;;7.63;3.87;;;;;;;20.01;55.62;98109.91;5016991;28;20732;-77
2023/06/03 08:49:40;;;;;;;7.37;4.30;;;;;;;19.17;55.94;98099.94;5017427;28;20198;-76
2023/06/03 08:52:08;;;;;;;5.50;3.87;;;;;;;19.69;56.14;98105.75;5017586;28;20238;-77
2023/06/03 08:54:37;;;;;;;8.23;4.40;;;;;;;19.75;55.06;98105.75;5017755;28;20210;-77
2023/06/03 08:57:08;;;;;;;8.10;4.50;;;;;;;19.83;55.62;98102.44;5017483;28;20288;-77
2023/06/03 08:59:38;;;;;;;9.03;4.03;;;;;;;20.21;54.74;98099.06;5017230;28;20249;-77
2023/06/03 09:02:05;;;;;;;7.70;4.30;;;;;;;20.15;54.73;98092.06;5016530;28;20213;-77
2023/06/03 09:04:32;;;;;;;8.73;3.90;;;;;;;20.26;55.11;98091.72;5017534;28;20203;-77
2023/06/03 09:07:01;;;;;;;7.20;4.50;;;;;;;20.24;54.57;98096.59;5016745;28;20237;-77
2023/06/03 09:09:28;;;;;;;10.87;4.50;;;;;;;20.52;53.30;98090.47;5016949;28;20257;-77
2023/06/03 09:11:56;;;;;;;6.87;3.90;;;;;;;20.60;53.49;98094.44;5016650;28;20709;-77
2023/06/03 09:14:22;;;;;;;8.53;4.30;;;;;;;20.59;54.20;98101.78;5016592;28;20314;-77
2023/06/03 09:16:49;;;;;;;8.90;4.53;;;;;;;20.10;53.42;98101.00;5016537;28;20589;-77
2023/06/03 09:19:16;;;;;;;6.67;4.10;;;;;;;20.49;55.36;98098.34;5017324;28;20207;-77
2023/06/03 09:21:43;;;;;;;5.77;4.03;;;;;;;20.84;53.17;98103.47;5016799;28;20210;-77
2023/06/03 09:24:12;;;;;;;8.30;4.50;;;;;;;20.85;53.56;98097.75;5016646;28;20210;-76
2023/06/03 09:26:39;;;;;;;8.40;4.13;;;;;;;21.13;53.75;98101.59;5016317;28;20702;-77
2023/06/03 09:29:06;;;;;;;10.73;4.97;;;;;;;21.41;52.59;98096.19;5016384;28;20214;-74
2023/06/03 09:31:32;;;;;;;8.70;4.40;;;;;;;21.44;52.61;98100.19;5016632;28;20293;-74
2023/06/03 09:33:59;;;;;;;8.77;4.30;;;;;;;21.56;50.55;98097.91;5016128;28;20226;-74
2023/06/03 09:36:26;;;;;;;6.50;4.23;;;;;;;21.59;51.73;98094.63;5016004;28;20233;-74
2023/06/03 09:38:54;;;;;;;5.80;3.83;;;;;;;21.65;52.98;98096.97;5012660;28;20207;-74
2023/06/03 09:41:30;;;;;;;9.17;4.50;;;;;;;21.67;51.28;98083.16;4996396;28;20208;-74
2023/06/03 09:43:59;;;;;;;6.23;4.07;;;;;;;21.78;51.94;98085.47;4996457;28;20210;-74
2023/06/03 09:46:27;;;;;;;9.80;4.50;;;;;;;22.03;51.23;98087.06;4996371;28;20238;-74
2023/06/03 09:48:53;;;;;;;9.37;5.10;;;;;;;22.01;50.11;98089.25;4996523;28;20243;-74
2023/06/03 09:51:20;;;;;;;6.67;4.43;;;;;;;21.71;50.06;98097.75;4996921;28;20597;-74
2023/06/03 09:53:46;;;;;;;8.67;4.40;;;;;;;21.61;51.90;98095.16;4996758;28;20214;-74
2023/06/03 09:56:26;;;;;;;6.77;4.10;;;;;;;21.71;50.50;98086.94;5002222;28;20221;-74
2023/06/03 09:59:13;;;;;;;5.17;4.30;;;;;;;21.80;49.85;98085.19;5015934;28;20202;-74
2023/06/03 10:01:40;;;;;;;8.43;3.97;;;;;;;21.72;51.43;98088.53;5015733;28;20708;-74
2023/06/03 10:04:07;;;;;;;11.60;4.30;;;;;;;22.09;50.59;98083.19;5015640;28;20647;-74
2023/06/03 10:06:35;;;;;;;5.87;4.20;;;;;;;21.91;50.22;98076.66;5015720;28;20231;-74
2023/06/03 10:09:17;;;;;;;6.80;4.18;;;;;;;22.37;49.22;98085.75;5015507;28;20555;-74
2023/06/03 10:11:48;;;;;;;4.53;4.03;;;;;;;22.17;50.92;98083.34;5015517;28;20555;-74
2023/06/03 10:14:15;;;;;;;7.63;4.35;;;;;;;22.16;50.92;98064.69;5015361;28;20669;-74
2023/06/03 10:17:01;;;;;;;6.78;3.92;;;;;;;22.68;50.09;98067.13;5015565;28;20285;-74
2023/06/03 10:19:28;;;;;;;10.63;4.30;;;;;;;22.56;50.06;98072.22;5001668;28;20206;-74
2023/06/03 10:21:56;;;;;;;6.18;4.15;;;;;;;22.87;50.70;98073.31;4996069;28;20567;-74
2023/06/03 10:24:23;;;;;;;6.78;4.82;;;;;;;22.41;50.33;98064.28;4996060;28;20610;-74
2023/06/03 10:26:51;;;;;;;5.57;4.38;;;;;;;22.33;51.36;98068.47;5007508;28;20225;-74
2023/06/03 10:29:18;;;;;;;8.05;5.07;;;;;;;22.87;50.35;98060.59;5015299;28;20210;-74
2023/06/03 10:31:46;;;;;;;8.15;4.65;;;;;;;23.00;50.86;98067.13;5015477;28;20214;-74
2023/06/03 10:34:14;;;;;;;6.78;4.43;;;;;;;22.95;50.89;98054.47;5014974;28;20669;-74
2023/06/03 10:36:45;;;;;;;8.23;4.68;;;;;;;22.98;49.67;98053.88;5015749;28;20230;-74
2023/06/03 10:39:12;;;;;;;5.57;4.22;;;;;;;22.98;49.05;98058.50;5015211;28;20618;-74
2023/06/03 10:41:39;;;;;;;10.35;4.63;;;;;;;22.72;50.26;98057.31;5014868;28;20214;-74
2023/06/03 10:44:06;;;;;;;10.55;4.68;;;;;;;23.04;49.81;98057.31;5015027;28;20248;-74
2023/06/03 10:46:35;;;;;;;6.90;4.35;;;;;;;23.12;49.25;98060.16;5014941;28;20691;-74
2023/06/03 10:49:07;;;;;;;6.07;4.57;;;;;;;23.10;47.79;98048.78;5014975;28;20210;-74
2023/06/03 10:52:00;;;;;;;8.05;4.55;;;;;;;23.13;48.95;98047.38;5015098;28;20194;-74
2023/06/03 10:54:39;;;;;;;7.18;4.70;;;;;;;23.23;47.78;98048.03;5012881;28;20191;-73
2023/06/03 10:57:08;;;;;;;7.10;4.40;;;;;;;23.22;49.87;98046.41;5006581;28;20230;-74
2023/06/03 10:59:46;;;;;;;8.23;4.63;;;;;;;23.45;47.92;98041.91;5000337;28;20213;-74
2023/06/03 11:02:13;;;;;;;7.25;4.60;;;;;;;22.96;48.84;98044.41;4995055;28;20187;-74
2023/06/03 11:04:40;;;;;;;5.97;4.53;;;;;;;22.97;48.51;98043.34;4994829;28;20208;-74
2023/06/03 11:07:28;;;;;;;7.65;5.05;;;;;;;23.65;48.13;98046.94;4994208;28;20234;-74
2023/06/03 11:09:54;;;;;;;6.40;4.47;;;;;;;23.63;48.74;98044.50;4997248;28;20199;-74
2023/06/03 11:12:21;;;;;;;8.85;4.80;;;;;;;23.57;47.48;98040.28;4994968;28;20606;-74
2023/06/03 11:14:48;;;;;;;6.53;4.78;;;;;;;23.68;48.96;98035.44;4994776;28;20575;-74
2023/06/03 11:17:15;;;;;;;5.47;4.05;;;;;;;23.32;48.48;98043.50;4994862;28;20223;-74
2023/06/03 11:19:44;;;;;;;6.32;4.40;;;;;;;23.17;47.68;98051.91;4994561;28;20211;-74
2023/06/03 11:22:12;;;;;;;5.40;4.60;;;;;;;23.21;47.12;98042.09;4994540;28;20598;-75
2023/06/03 11:24:38;;;;;;;5.95;4.63;;;;;;;23.21;47.30;98033.97;4994777;28;20211;-74
2023/06/03 11:27:12;;;;;;;6.85;4.90;;;;;;;23.22;46.62;98046.41;4994708;28;20219;-74
2023/06/03 11:30:06;;;;;;;5.15;4.13;;;;;;;23.53;46.73;98039.31;5003830;28;20249;-74
2023/06/03 11:32:35;;;;;;;6.05;4.78;;;;;;;23.16;48.00;98038.66;5008118;28;20306;-75
2023/06/03 11:35:03;;;;;;;8.63;4.55;;;;;;;23.53;47.91;98039.31;5013682;28;20203;-74
2023/06/03 11:37:41;;;;;;;6.43;4.63;;;;;;;23.66;46.97;98034.97;5014004;28;20237;-74
2023/06/03 11:40:09;;;;;;;7.57;4.43;;;;;;;23.97;45.70;98038.66;5013744;28;20555;-74